Time;durP1;ratioP1;P1;durP2;ratioP2;P2;SDS_P1;SDS_P2;PMS_P1;PMS_P2;Temp;Humidity;BMP_temperature;BMP_pressure;BME280_temperature;BME280_humidity;BME280_pressure;Samples;Min_cycle;Max_cycle;Signal;HPM_P1;HPM_P2
2021/12/18 00:00:27;;;;;;;26.43;14.07;;;;;;;4.15;100.00;101291.72;5099547;28;20195;-83
2021/12/18 00:02:57;;;;;;;23.47;14.30;;;;;;;4.12;100.00;101307.47;5102007;28;20195;-83
2021/12/18 00:05:26;;;;;;;34.13;16.90;;;;;;;4.27;100.00;101299.56;5098772;28;20257;-83
2021/12/18 00:07:55;;;;;;;28.93;16.03;;;;;;;4.34;100.00;101305.66;5104399;27;20184;-83
2021/12/18 00:10:24;;;;;;;25.40;15.20;;;;;;;4.30;100.00;101300.41;5101674;28;20195;-83
2021/12/18 00:12:53;;;;;;;26.17;15.27;;;;;;;4.47;100.00;101300.34;5104306;28;20310;-83
2021/12/18 00:15:27;;;;;;;27.67;16.90;;;;;;;4.44;100.00;101309.97;5101593;28;20196;-83
2021/12/18 00:17:58;;;;;;;28.40;15.03;;;;;;;4.48;100.00;101302.09;5100030;28;20274;-83
2021/12/18 00:20:27;;;;;;;28.07;14.90;;;;;;;4.44;100.00;101307.34;5101027;28;20223;-83
2021/12/18 00:22:57;;;;;;;26.80;15.83;;;;;;;4.50;100.00;101300.34;5097732;28;20204;-83
2021/12/18 00:25:26;;;;;;;24.40;14.70;;;;;;;4.51;100.00;101298.59;5096902;28;20187;-83
2021/12/18 00:27:54;;;;;;;25.23;15.20;;;;;;;4.54;100.00;101299.47;5097896;28;20665;-83
2021/12/18 00:30:22;;;;;;;25.20;14.97;;;;;;;4.59;100.00;101302.03;5106009;27;20195;-82
2021/12/18 00:32:51;;;;;;;24.47;14.37;;;;;;;4.49;100.00;101295.09;5108852;28;20253;-83
2021/12/18 00:35:21;;;;;;;24.30;15.40;;;;;;;4.57;100.00;101294.19;5111362;28;20243;-81
2021/12/18 00:37:50;;;;;;;24.80;15.17;;;;;;;4.53;100.00;101284.56;5115845;28;20226;-82
2021/12/18 00:40:23;;;;;;;25.77;14.77;;;;;;;4.55;100.00;101295.09;5113264;27;20647;-82
2021/12/18 00:43:00;;;;;;;24.83;14.30;;;;;;;4.55;100.00;101282.84;5100391;28;20194;-83
2021/12/18 00:45:30;;;;;;;23.53;13.87;;;;;;;4.75;100.00;101289.72;5097665;28;20198;-83
2021/12/18 00:48:00;;;;;;;25.50;14.87;;;;;;;4.82;100.00;101288.78;5103227;27;20215;-84
2021/12/18 00:50:30;;;;;;;25.20;14.00;;;;;;;4.79;100.00;101294.94;5098589;28;20201;-83
2021/12/18 00:53:01;;;;;;;25.40;14.53;;;;;;;4.85;100.00;101287.03;5100682;28;20226;-83
2021/12/18 00:55:30;;;;;;;27.87;15.27;;;;;;;4.72;100.00;101284.47;5097386;28;20222;-83
2021/12/18 00:57:58;;;;;;;25.73;15.83;;;;;;;4.80;100.00;101287.94;5092936;28;20192;-83
2021/12/18 01:00:28;;;;;;;24.33;14.90;;;;;;;4.93;100.00;101292.25;5097274;28;20204;-83
2021/12/18 01:03:00;;;;;;;23.13;14.70;;;;;;;4.98;100.00;101285.19;5096320;28;20233;-83
2021/12/18 01:05:33;;;;;;;28.37;16.13;;;;;;;4.83;100.00;101288.81;5101630;28;20187;-82
2021/12/18 01:08:02;;;;;;;28.43;16.67;;;;;;;4.91;100.00;101283.47;5102743;28;20192;-83
2021/12/18 01:10:43;;;;;;;31.00;17.40;;;;;;;4.95;100.00;101279.09;5099942;28;20676;-83
2021/12/18 01:13:17;;;;;;;35.50;19.47;;;;;;;5.04;100.00;101281.66;5100907;28;20211;-83
2021/12/18 01:15:50;;;;;;;33.27;18.57;;;;;;;5.01;100.00;101279.91;5098801;28;20215;-82
2021/12/18 01:23:54;;;;;;;35.23;19.40;;;;;;;5.03;100.00;101286.03;5096139;28;20223;-83
2021/12/18 01:26:23;;;;;;;33.23;17.97;;;;;;;5.14;100.00;101288.59;5056604;28;20193;-83
2021/12/18 01:28:51;;;;;;;34.07;18.87;;;;;;;5.09;100.00;101287.72;5044771;28;20189;-83
2021/12/18 01:31:20;;;;;;;34.87;18.63;;;;;;;5.17;100.00;101289.41;5049828;28;20679;-82
2021/12/18 01:33:48;;;;;;;39.50;20.43;;;;;;;5.17;100.00;101284.16;5053422;28;20679;-83
2021/12/18 01:36:21;;;;;;;36.40;19.83;;;;;;;5.23;100.00;101287.66;5062176;28;20233;-83
2021/12/18 01:38:49;;;;;;;41.43;20.50;;;;;;;5.21;100.00;101290.28;5057400;28;20197;-83
2021/12/18 01:41:19;;;;;;;35.40;19.47;;;;;;;5.30;100.00;101295.44;5060008;28;20200;-82
2021/12/18 01:46:46;;;;;;;35.50;18.83;;;;;;;5.19;100.00;101305.16;5093491;28;20194;-83
2021/12/18 01:52:16;;;;;;;42.07;22.43;;;;;;;5.31;100.00;101298.97;5103506;28;20195;-83
2021/12/18 01:54:45;;;;;;;41.30;20.77;;;;;;;5.25;100.00;101299.88;5101890;28;20306;-82
2021/12/18 01:57:14;;;;;;;42.27;22.30;;;;;;;5.25;100.00;101301.63;5101031;28;20192;-83
2021/12/18 01:59:47;;;;;;;41.83;21.80;;;;;;;5.32;100.00;101298.97;5101162;28;20208;-82
2021/12/18 02:02:18;;;;;;;45.83;21.83;;;;;;;5.35;100.00;101300.69;5093344;28;20214;-83
2021/12/18 02:04:46;;;;;;;40.07;21.23;;;;;;;5.33;100.00;101305.94;5099020;28;20646;-82
2021/12/18 02:07:17;;;;;;;38.33;21.33;;;;;;;5.34;100.00;101301.56;5100598;28;20225;-83
2021/12/18 02:12:37;;;;;;;43.70;22.17;;;;;;;5.46;100.00;101309.34;5099757;28;20199;-83
2021/12/18 02:20:45;;;;;;;43.27;22.50;;;;;;;5.45;100.00;101313.72;5103190;28;20198;-83
2021/12/18 02:23:14;;;;;;;39.63;20.73;;;;;;;5.37;100.00;101312.91;5092624;28;20191;-83
2021/12/18 02:25:49;;;;;;;38.97;20.40;;;;;;;5.47;100.00;101305.81;5096403;28;20207;-83
2021/12/18 02:28:24;;;;;;;42.23;21.03;;;;;;;5.47;100.00;101309.31;5102204;28;20210;-82
2021/12/18 02:30:57;;;;;;;39.80;20.73;;;;;;;5.39;100.00;101308.50;5100189;28;20206;-83
2021/12/18 02:33:27;;;;;;;42.90;22.23;;;;;;;5.37;100.00;101310.28;5102171;27;20195;-82
2021/12/18 02:36:02;;;;;;;43.27;23.10;;;;;;;5.45;100.00;101303.22;5097761;28;20275;-82
2021/12/18 02:38:45;;;;;;;43.97;21.77;;;;;;;5.43;100.00;101306.75;5095709;28;20210;-83
2021/12/18 02:41:25;;;;;;;41.97;20.77;;;;;;;5.41;100.00;101304.13;5097137;28;20196;-83
2021/12/18 02:43:54;;;;;;;39.20;19.90;;;;;;;5.40;100.00;101301.50;5105204;28;20204;-80
2021/12/18 02:46:23;;;;;;;41.00;19.90;;;;;;;5.45;100.00;101295.31;5102513;28;20195;-83
2021/12/18 02:48:53;;;;;;;39.00;19.10;;;;;;;5.43;100.00;101305.00;5086943;28;20184;-83
2021/12/18 02:51:24;;;;;;;36.47;19.83;;;;;;;5.47;100.00;101303.19;5088311;28;20210;-83
2021/12/18 02:53:56;;;;;;;42.37;19.73;;;;;;;5.53;100.00;101302.28;5091404;28;20318;-83
2021/12/18 02:56:28;;;;;;;40.83;20.00;;;;;;;5.55;100.00;101301.38;5093975;28;20237;-82
2021/12/18 02:59:00;;;;;;;39.97;20.10;;;;;;;5.65;100.00;101300.41;5092998;28;20188;-83
2021/12/18 03:01:29;;;;;;;37.97;18.57;;;;;;;5.62;100.00;101300.44;5097594;28;20619;-82
2021/12/18 03:04:00;;;;;;;37.77;18.43;;;;;;;5.61;100.00;101296.06;5103367;28;20199;-83
2021/12/18 03:06:36;;;;;;;35.47;18.63;;;;;;;5.53;100.00;101297.91;5100252;28;20195;-83
2021/12/18 03:09:30;;;;;;;35.77;17.67;;;;;;;5.55;100.00;101298.75;5094619;28;20674;-83
2021/12/18 03:25:57;;;;;;;35.37;17.20;;;;;;;5.77;100.00;101294.16;5091716;28;20703;-83
2021/12/18 03:28:29;;;;;;;40.33;20.07;;;;;;;5.72;100.00;101295.97;5093318;28;20192;-83
2021/12/18 03:30:58;;;;;;;38.53;17.87;;;;;;;5.79;100.00;101288.88;5093310;28;20184;-83
2021/12/18 03:33:27;;;;;;;37.27;17.13;;;;;;;5.77;100.00;101290.66;5092353;28;20249;-83
2021/12/18 03:35:56;;;;;;;33.40;16.90;;;;;;;5.87;100.00;101287.03;5091243;28;20211;-83
2021/12/18 03:38:25;;;;;;;33.33;15.50;;;;;;;5.94;100.00;101287.00;5096314;28;20649;-83
2021/12/18 03:40:55;;;;;;;40.63;18.80;;;;;;;5.88;100.00;101287.03;5097872;28;20195;-83
2021/12/18 03:43:23;;;;;;;34.80;16.87;;;;;;;5.96;100.00;101290.47;5098710;28;20202;-83
2021/12/18 03:45:51;;;;;;;32.97;17.23;;;;;;;5.98;100.00;101287.81;5096924;28;20203;-83
2021/12/18 03:48:20;;;;;;;33.30;16.40;;;;;;;6.01;100.00;101290.44;5098025;28;20214;-83
2021/12/18 03:50:52;;;;;;;35.73;16.97;;;;;;;5.97;100.00;101291.34;5097344;28;20275;-83
2021/12/18 03:53:21;;;;;;;38.00;17.90;;;;;;;5.99;100.00;101279.06;5095946;28;20199;-83
2021/12/18 03:55:50;;;;;;;33.37;15.97;;;;;;;5.97;100.00;101279.06;5096894;28;20208;-83
2021/12/18 03:58:20;;;;;;;34.43;16.97;;;;;;;5.97;100.00;101279.06;5096742;28;20187;-83
2021/12/18 04:00:50;;;;;;;32.67;15.60;;;;;;;5.93;100.00;101271.25;5098291;28;20199;-83
2021/12/18 04:03:19;;;;;;;34.23;16.70;;;;;;;5.99;100.00;101274.69;5095245;28;20211;-83
2021/12/18 04:05:48;;;;;;;28.10;15.20;;;;;;;6.03;100.00;101276.38;5093904;28;20218;-83
2021/12/18 04:08:18;;;;;;;28.23;15.13;;;;;;;6.00;100.00;101275.56;5094692;28;20207;-83
2021/12/18 04:10:48;;;;;;;31.37;16.33;;;;;;;5.97;100.00;101267.66;5096839;28;20202;-83
2021/12/18 04:13:18;;;;;;;29.73;16.47;;;;;;;5.97;100.00;101272.94;5096647;28;20192;-84
2021/12/18 04:15:48;;;;;;;30.07;15.60;;;;;;;5.97;100.00;101270.31;5089865;28;20219;-83
2021/12/18 04:18:24;;;;;;;29.77;15.90;;;;;;;5.95;100.00;101279.97;5095066;28;20199;-83
2021/12/18 04:20:53;;;;;;;31.60;15.00;;;;;;;5.97;100.00;101272.94;5096481;28;20271;-82
2021/12/18 04:23:22;;;;;;;31.77;15.80;;;;;;;5.94;100.00;101286.13;5094929;28;20192;-83
2021/12/18 04:25:51;;;;;;;30.97;16.13;;;;;;;5.97;100.00;101279.06;5093749;28;20283;-83
2021/12/18 04:28:21;;;;;;;33.90;16.47;;;;;;;5.92;100.00;101285.28;5070848;28;20208;-83
2021/12/18 04:30:50;;;;;;;31.57;16.10;;;;;;;5.96;100.00;101274.69;5062993;28;20242;-83
2021/12/18 04:33:20;;;;;;;29.87;15.17;;;;;;;5.97;100.00;101273.81;5071011;28;20204;-82
2021/12/18 04:35:50;;;;;;;30.03;15.73;;;;;;;5.90;100.00;101280.03;5068508;28;20227;-83
2021/12/18 04:38:18;;;;;;;32.30;15.87;;;;;;;5.87;100.00;101281.78;5067093;28;20236;-84
2021/12/18 04:40:50;;;;;;;33.47;16.30;;;;;;;5.69;100.00;101282.84;5069538;28;20200;-83
2021/12/18 04:43:21;;;;;;;34.10;15.57;;;;;;;5.73;100.00;101288.06;5070931;28;20200;-83
2021/12/18 04:45:49;;;;;;;32.03;16.93;;;;;;;5.55;100.00;101287.38;5069013;28;20188;-83
2021/12/18 04:48:18;;;;;;;35.33;16.67;;;;;;;5.66;100.00;101296.88;5065710;28;20193;-82
2021/12/18 04:50:50;;;;;;;33.40;16.80;;;;;;;5.71;100.00;101288.97;5021927;28;20192;-83
2021/12/18 04:53:19;;;;;;;30.07;16.47;;;;;;;5.69;100.00;101298.59;5078662;28;20192;-83
2021/12/18 04:55:47;;;;;;;30.87;15.97;;;;;;;5.77;100.00;101288.88;5096028;28;20220;-83
2021/12/18 04:58:17;;;;;;;34.50;17.10;;;;;;;5.82;100.00;101288.88;5092092;28;20195;-83
2021/12/18 05:00:49;;;;;;;33.60;17.23;;;;;;;5.73;100.00;101292.44;5095966;28;20249;-83
2021/12/18 05:03:19;;;;;;;35.73;17.97;;;;;;;5.77;100.00;101286.25;5094269;28;20192;-83
2021/12/18 05:05:48;;;;;;;34.23;17.37;;;;;;;5.67;100.00;101287.25;5096978;28;20307;-83
2021/12/18 05:08:18;;;;;;;36.63;17.77;;;;;;;5.69;100.00;101288.09;5096978;28;20203;-83
2021/12/18 05:10:47;;;;;;;37.43;18.53;;;;;;;5.58;100.00;101282.06;5096643;28;20316;-83
2021/12/18 05:13:15;;;;;;;35.87;18.00;;;;;;;5.45;100.00;101292.69;5095412;28;20200;-83
2021/12/18 05:15:47;;;;;;;28.03;15.90;;;;;;;5.45;100.00;101287.44;5098040;28;20207;-83
2021/12/18 05:18:16;;;;;;;34.20;17.73;;;;;;;5.47;100.00;101282.16;5087928;28;20195;-83
2021/12/18 05:20:45;;;;;;;38.03;17.37;;;;;;;5.52;100.00;101279.50;5095162;28;20245;-82
2021/12/18 05:23:14;;;;;;;32.33;16.97;;;;;;;5.63;100.00;101281.16;5092543;28;20265;-84
2021/12/18 05:25:42;;;;;;;34.13;18.17;;;;;;;5.55;100.00;101275.09;5095259;28;20206;-83
2021/12/18 05:28:11;;;;;;;35.20;17.23;;;;;;;5.49;100.00;101275.13;5096530;28;20266;-82
2021/12/18 05:30:39;;;;;;;33.73;17.37;;;;;;;5.54;100.00;101275.09;5094780;28;20199;-83
2021/12/18 05:33:10;;;;;;;33.87;17.73;;;;;;;5.52;100.00;101272.50;5094928;28;20192;-83
2021/12/18 05:35:40;;;;;;;33.53;16.07;;;;;;;5.50;100.00;101268.13;5094659;28;20261;-83
2021/12/18 05:38:08;;;;;;;32.00;17.63;;;;;;;5.45;100.00;101258.53;5092264;28;20283;-83
2021/12/18 05:40:39;;;;;;;32.17;16.63;;;;;;;5.42;100.00;101265.59;5110686;28;20199;-82
2021/12/18 05:43:09;;;;;;;33.13;16.07;;;;;;;5.51;100.00;101267.25;5115324;28;20220;-83
2021/12/18 05:45:38;;;;;;;29.20;16.93;;;;;;;5.52;100.00;101272.50;5101683;28;20279;-85
2021/12/18 05:48:07;;;;;;;36.00;17.57;;;;;;;5.44;100.00;101269.06;5096898;27;20199;-84
2021/12/18 05:50:37;;;;;;;33.27;16.43;;;;;;;5.37;100.00;101278.75;5096380;28;20190;-84
2021/12/18 05:53:07;;;;;;;28.03;16.10;;;;;;;5.41;100.00;101261.22;5111986;28;20180;-82
2021/12/18 05:55:35;;;;;;;32.90;16.70;;;;;;;5.29;100.00;101266.56;5102019;28;20222;-84
2021/12/18 05:58:03;;;;;;;34.13;16.97;;;;;;;5.42;100.00;101258.56;5094668;28;20194;-84
2021/12/18 06:00:32;;;;;;;30.23;15.80;;;;;;;5.43;100.00;101260.31;5092670;28;20221;-84
2021/12/18 06:03:00;;;;;;;33.73;16.80;;;;;;;5.50;100.00;101270.75;5090577;28;20614;-83
2021/12/18 06:05:29;;;;;;;32.87;17.10;;;;;;;5.33;100.00;101276.19;5085820;28;20646;-83
2021/12/18 06:07:58;;;;;;;33.73;16.10;;;;;;;5.47;100.00;101275.16;5088219;28;20219;-83
2021/12/18 06:10:29;;;;;;;32.30;16.80;;;;;;;5.49;100.00;101280.38;5075861;28;20199;-84
2021/12/18 06:12:59;;;;;;;35.17;18.23;;;;;;;5.39;100.00;101286.63;5090118;28;20195;-84
2021/12/18 06:15:28;;;;;;;32.67;17.33;;;;;;;5.44;100.00;101269.94;5094026;28;20192;-84
2021/12/18 06:17:56;;;;;;;40.90;17.57;;;;;;;5.50;100.00;101282.16;5094464;28;20230;-83
2021/12/18 06:20:26;;;;;;;33.33;17.33;;;;;;;5.42;100.00;101284.84;5093174;28;20192;-83
2021/12/18 06:22:55;;;;;;;30.80;16.40;;;;;;;5.58;100.00;101282.94;5092931;28;20207;-83
2021/12/18 06:25:25;;;;;;;33.90;16.77;;;;;;;5.59;100.00;101294.31;5092954;28;20245;-83
2021/12/18 06:27:55;;;;;;;32.83;17.07;;;;;;;5.58;100.00;101288.19;5093933;28;20200;-84
2021/12/18 06:30:23;;;;;;;31.97;16.90;;;;;;;5.61;100.00;101290.81;5093795;28;20188;-84
2021/12/18 06:32:52;;;;;;;31.30;17.50;;;;;;;5.57;100.00;101290.84;5028434;28;20201;-84
2021/12/18 06:35:21;;;;;;;32.10;15.77;;;;;;;5.66;100.00;101286.38;5023467;28;20198;-84
2021/12/18 06:37:50;;;;;;;31.50;16.73;;;;;;;5.54;100.00;101285.63;5024926;28;20217;-83
2021/12/18 06:40:21;;;;;;;27.67;15.80;;;;;;;5.57;100.00;101288.22;5026174;28;20206;-83
2021/12/18 06:42:51;;;;;;;32.77;17.20;;;;;;;5.61;100.00;101297.84;5024429;28;20201;-83
2021/12/18 06:45:23;;;;;;;29.50;16.27;;;;;;;5.52;100.00;101296.16;4975228;28;20199;-83
2021/12/18 06:47:52;;;;;;;33.77;17.27;;;;;;;5.55;100.00;101290.00;4973609;28;20200;-83
2021/12/18 06:50:21;;;;;;;38.13;17.73;;;;;;;5.63;100.00;101289.03;4988398;28;20193;-84
2021/12/18 06:52:50;;;;;;;32.67;16.73;;;;;;;5.66;100.00;101282.88;5000529;28;20189;-84
2021/12/18 06:55:21;;;;;;;35.03;16.77;;;;;;;5.57;100.00;101288.22;5049372;28;20219;-84
2021/12/18 06:57:52;;;;;;;28.67;16.60;;;;;;;5.52;100.00;101290.91;5054733;28;20246;-83
2021/12/18 07:00:22;;;;;;;35.07;17.27;;;;;;;5.55;100.00;101293.50;5051584;28;20200;-84
2021/12/18 07:02:51;;;;;;;32.37;17.90;;;;;;;5.21;100.00;101287.66;5053364;28;20196;-83
2021/12/18 07:05:20;;;;;;;30.57;17.00;;;;;;;5.44;100.00;101296.22;5046994;28;20271;-83
2021/12/18 07:07:51;;;;;;;35.03;17.57;;;;;;;5.45;100.00;101297.97;5043096;28;20197;-83
2021/12/18 07:10:20;;;;;;;43.27;20.77;;;;;;;5.56;100.00;101304.88;5076973;28;20206;-84
2021/12/18 07:12:49;;;;;;;40.93;20.50;;;;;;;5.71;100.00;101300.34;5071099;28;20651;-83
2021/12/18 07:15:19;;;;;;;42.63;20.97;;;;;;;5.70;100.00;101305.63;5069627;28;20208;-84
2021/12/18 07:17:48;;;;;;;45.10;21.40;;;;;;;5.75;100.00;101304.69;5075466;28;20228;-83
2021/12/18 07:20:17;;;;;;;38.73;19.37;;;;;;;5.75;100.00;101296.81;5072897;28;20200;-84
2021/12/18 07:22:47;;;;;;;35.67;18.83;;;;;;;5.75;100.00;101303.81;5063882;28;20266;-84
2021/12/18 07:25:16;;;;;;;39.87;19.57;;;;;;;5.77;100.00;101309.94;5065051;28;20728;-84
2021/12/18 07:27:44;;;;;;;38.97;19.93;;;;;;;5.96;100.00;101308.03;5074961;28;20203;-83
2021/12/18 07:30:15;;;;;;;36.57;18.53;;;;;;;5.95;100.00;101314.16;5074922;28;20196;-84
2021/12/18 07:32:47;;;;;;;36.03;17.63;;;;;;;5.86;100.00;101314.22;5095523;28;20214;-84
2021/12/18 07:35:16;;;;;;;36.13;18.30;;;;;;;5.86;100.00;101306.34;5094273;28;20204;-83
2021/12/18 07:37:45;;;;;;;49.57;23.00;;;;;;;5.91;100.00;101309.84;5098734;27;20227;-84
2021/12/18 07:40:18;;;;;;;40.03;19.13;;;;;;;5.74;100.00;101310.84;5098883;28;20211;-84
2021/12/18 07:42:47;;;;;;;38.30;18.40;;;;;;;5.82;100.00;101309.91;5094591;28;20203;-84
2021/12/18 07:45:15;;;;;;;36.17;19.20;;;;;;;5.95;100.00;101311.53;5096250;28;20244;-84
2021/12/18 07:47:45;;;;;;;42.60;19.53;;;;;;;5.63;100.00;101310.06;5054867;28;20197;-83
2021/12/18 07:50:18;;;;;;;41.97;18.33;;;;;;;5.51;100.00;101312.81;5050101;28;20251;-83
2021/12/18 07:52:47;;;;;;;38.17;19.87;;;;;;;5.06;100.00;101311.41;5050573;28;20196;-84
2021/12/18 07:55:17;;;;;;;36.43;18.93;;;;;;;5.14;100.00;101314.84;5053782;28;20189;-85
2021/12/18 07:57:46;;;;;;;42.63;19.00;;;;;;;5.31;100.00;101312.09;5049852;28;20220;-84
2021/12/18 08:00:16;;;;;;;53.67;25.77;;;;;;;5.22;100.00;101302.53;5049568;28;20201;-84
2021/12/18 08:02:49;;;;;;;65.07;31.60;;;;;;;5.06;100.00;101309.66;5046571;28;20201;-83
2021/12/18 08:05:17;;;;;;;43.57;20.97;;;;;;;5.30;100.00;101310.34;5061601;28;20222;-83
2021/12/18 08:07:46;;;;;;;41.83;21.20;;;;;;;5.38;100.00;101311.16;5092534;28;20222;-84
2021/12/18 08:10:15;;;;;;;39.83;20.27;;;;;;;5.38;100.00;101312.03;5091095;28;20199;-84
2021/12/18 08:12:44;;;;;;;43.97;20.47;;;;;;;5.39;100.00;101310.25;5093653;28;20245;-83
2021/12/18 08:15:14;;;;;;;47.30;21.03;;;;;;;5.42;100.00;101311.13;5096652;28;20192;-83
2021/12/18 08:17:44;;;;;;;36.77;18.57;;;;;;;5.47;100.00;101319.84;5098414;27;20222;-84
2021/12/18 08:20:15;;;;;;;38.00;19.20;;;;;;;5.55;100.00;101319.78;5092525;28;20650;-83
2021/12/18 08:22:44;;;;;;;35.40;19.43;;;;;;;5.59;100.00;101313.59;5094905;28;20192;-84
2021/12/18 08:25:13;;;;;;;51.23;27.93;;;;;;;5.09;100.00;101317.50;5090529;28;20210;-83
2021/12/18 08:27:41;;;;;;;222.83;138.40;;;;;;;5.06;100.00;101314.91;5089157;28;20187;-84
2021/12/18 08:30:10;;;;;;;41.97;21.43;;;;;;;5.18;100.00;101311.31;5089735;28;20331;-84
2021/12/18 08:32:43;;;;;;;41.23;19.77;;;;;;;5.45;100.00;101302.34;5096147;28;20199;-84
2021/12/18 08:35:16;;;;;;;36.57;18.20;;;;;;;5.58;100.00;101313.59;5094136;28;20219;-85
2021/12/18 08:37:45;;;;;;;33.60;17.63;;;;;;;5.61;100.00;101316.25;5095575;28;20231;-84
2021/12/18 08:40:15;;;;;;;39.53;19.67;;;;;;;5.55;100.00;101317.16;5096349;28;20188;-85
2021/12/18 08:42:43;;;;;;;34.37;17.50;;;;;;;5.46;100.00;101315.47;5091649;28;20195;-85
2021/12/18 08:45:16;;;;;;;36.93;18.97;;;;;;;5.57;100.00;101309.25;5091590;28;20202;-85
2021/12/18 08:47:44;;;;;;;38.73;20.03;;;;;;;5.52;100.00;101311.94;5073777;28;20267;-85
2021/12/18 08:50:19;;;;;;;38.50;18.57;;;;;;;5.68;100.00;101304.75;5075381;28;20200;-85
2021/12/18 08:52:50;;;;;;;35.47;18.17;;;;;;;5.79;100.00;101304.66;5072126;28;20210;-84
2021/12/18 08:55:22;;;;;;;37.30;19.87;;;;;;;5.03;100.00;101300.94;5068992;28;20192;-85
2021/12/18 08:57:53;;;;;;;38.83;20.03;;;;;;;4.93;100.00;101301.88;5078455;27;20274;-85
2021/12/18 09:00:25;;;;;;;39.77;20.73;;;;;;;4.74;100.00;101306.34;5073530;28;20193;-84
2021/12/18 09:02:57;;;;;;;42.27;24.70;;;;;;;4.87;100.00;101294.88;5068106;28;20323;-83
2021/12/18 09:05:30;;;;;;;43.00;20.03;;;;;;;4.97;100.00;101293.94;5076058;28;20199;-85
2021/12/18 09:07:59;;;;;;;42.73;20.40;;;;;;;5.02;100.00;101307.03;5052082;28;20751;-84
2021/12/18 09:10:29;;;;;;;47.57;21.03;;;;;;;5.00;100.00;101303.56;5046904;28;20201;-84
2021/12/18 09:12:58;;;;;;;43.47;21.00;;;;;;;4.83;100.00;101299.31;5050005;28;20192;-83
2021/12/18 09:15:27;;;;;;;43.40;20.50;;;;;;;5.01;100.00;101302.66;5047588;28;20201;-84
2021/12/18 09:17:59;;;;;;;45.67;20.33;;;;;;;5.14;100.00;101310.47;5048058;28;20213;-84
2021/12/18 09:20:31;;;;;;;44.77;20.37;;;;;;;5.35;100.00;101312.06;5048156;28;20200;-84
2021/12/18 09:23:01;;;;;;;42.63;20.30;;;;;;;5.26;100.00;101306.88;5006264;28;20210;-84
2021/12/18 09:25:30;;;;;;;45.90;20.37;;;;;;;5.39;100.00;101321.66;5016082;28;20193;-83
2021/12/18 09:27:59;;;;;;;45.60;21.90;;;;;;;5.47;100.00;101313.72;5049298;28;20193;-84
2021/12/18 09:30:27;;;;;;;45.23;21.70;;;;;;;5.25;100.00;101325.28;5047039;28;20316;-84
2021/12/18 09:32:59;;;;;;;48.80;23.07;;;;;;;5.37;100.00;101320.78;5047663;28;20197;-85
2021/12/18 09:35:28;;;;;;;54.37;22.97;;;;;;;5.39;100.00;101318.16;5048862;28;20191;-84
2021/12/18 09:37:59;;;;;;;48.73;23.70;;;;;;;5.61;100.00;101316.25;5045547;28;20336;-86
2021/12/18 09:40:29;;;;;;;47.57;21.63;;;;;;;5.58;100.00;101321.50;5045948;28;20324;-84
2021/12/18 09:42:59;;;;;;;49.43;22.63;;;;;;;5.61;100.00;101314.47;5046652;28;20205;-84
2021/12/18 09:45:27;;;;;;;50.63;23.53;;;;;;;5.49;100.00;101313.69;5046976;28;20196;-84
2021/12/18 09:47:59;;;;;;;46.43;22.27;;;;;;;5.60;100.00;101310.09;5076860;28;20195;-84
2021/12/18 09:50:31;;;;;;;46.93;21.70;;;;;;;5.78;100.00;101311.66;5091647;28;20255;-84
2021/12/18 09:53:02;;;;;;;46.37;22.23;;;;;;;5.79;100.00;101304.66;5089110;28;20295;-84
2021/12/18 09:55:31;;;;;;;54.47;25.13;;;;;;;5.67;100.00;101295.13;5097243;28;20226;-84
2021/12/18 09:57:59;;;;;;;56.90;25.23;;;;;;;5.52;100.00;101295.28;5071621;28;20214;-85
2021/12/18 10:00:28;;;;;;;52.73;24.87;;;;;;;5.73;100.00;101293.31;5060726;28;20192;-84
2021/12/18 10:02:56;;;;;;;54.80;27.17;;;;;;;5.82;100.00;101297.63;5072754;28;20295;-84
2021/12/18 10:05:27;;;;;;;49.17;22.53;;;;;;;5.72;100.00;101301.22;5066501;28;20257;-84
2021/12/18 10:08:21;;;;;;;58.07;30.03;;;;;;;5.97;100.00;101296.59;5063188;28;20192;-84
2021/12/18 10:11:03;;;;;;;50.70;22.80;;;;;;;5.83;100.00;101285.34;5061904;28;20242;-84
2021/12/18 10:13:49;;;;;;;60.13;27.00;;;;;;;5.88;100.00;101284.38;5067303;28;20196;-84
2021/12/18 10:16:18;;;;;;;56.83;29.93;;;;;;;5.65;100.00;101273.25;5075780;28;20203;-84
2021/12/18 10:18:50;;;;;;;47.97;24.70;;;;;;;5.57;100.00;101281.19;5094280;27;20311;-85
2021/12/18 10:21:22;;;;;;;44.23;19.67;;;;;;;5.54;100.00;101270.72;5092774;28;20196;-84
2021/12/18 10:23:56;;;;;;;41.33;18.83;;;;;;;5.40;100.00;101275.22;5086867;28;20203;-84
2021/12/18 10:26:36;;;;;;;45.47;20.43;;;;;;;5.24;100.00;101271.00;5092424;28;20207;-84
2021/12/18 10:29:08;;;;;;;46.07;19.83;;;;;;;5.31;100.00;101276.19;5092537;28;20195;-84
2021/12/18 10:31:41;;;;;;;43.47;19.33;;;;;;;5.59;100.00;101268.03;5093019;28;20188;-84
2021/12/18 10:34:18;;;;;;;50.53;20.30;;;;;;;5.54;100.00;101268.09;5092157;28;20261;-85
2021/12/18 10:37:13;;;;;;;44.67;19.67;;;;;;;5.27;100.00;101260.44;5091712;28;20238;-84
2021/12/18 10:39:45;;;;;;;37.70;18.67;;;;;;;5.31;100.00;101260.44;5092953;28;20663;-85
2021/12/18 10:42:25;;;;;;;37.70;17.67;;;;;;;5.62;100.00;101260.13;5086919;28;20188;-85
2021/12/18 10:45:05;;;;;;;41.10;18.87;;;;;;;5.57;100.00;101252.28;5087966;28;20274;-84
2021/12/18 10:47:49;;;;;;;42.63;18.50;;;;;;;5.75;100.00;101240.72;5092269;28;20195;-85
2021/12/18 10:50:20;;;;;;;37.27;18.37;;;;;;;5.88;100.00;101238.81;5092539;28;20188;-84
2021/12/18 10:52:57;;;;;;;38.70;18.63;;;;;;;5.96;100.00;101235.25;5091112;28;20222;-84
2021/12/18 10:55:38;;;;;;;42.37;17.83;;;;;;;5.66;100.00;101230.28;5090894;28;20297;-85
2021/12/18 10:58:09;;;;;;;50.57;20.93;;;;;;;5.55;100.00;101233.03;5092308;28;20195;-84
2021/12/18 11:00:50;;;;;;;42.57;19.40;;;;;;;5.69;100.00;101222.34;5092335;28;20212;-84
2021/12/18 11:03:29;;;;;;;40.10;18.53;;;;;;;5.73;100.00;101232.84;5087341;28;20199;-85
2021/12/18 11:06:13;;;;;;;32.13;16.00;;;;;;;5.71;100.00;101224.09;5092828;28;20191;-84
2021/12/18 11:09:07;;;;;;;30.73;15.20;;;;;;;5.82;100.00;101216.09;5089358;28;20195;-84
2021/12/18 11:14:48;;;;;;;33.33;15.00;;;;;;;6.05;100.00;101215.84;5093326;28;20294;-85
2021/12/18 11:17:17;;;;;;;32.33;16.53;;;;;;;5.94;100.00;101213.34;5087771;28;20203;-85
2021/12/18 11:19:45;;;;;;;51.43;33.53;;;;;;;5.90;100.00;101218.66;5091800;28;20224;-84
2021/12/18 11:22:16;;;;;;;30.17;16.17;;;;;;;5.99;100.00;101208.06;5093523;28;20191;-85
2021/12/18 11:24:51;;;;;;;37.33;26.17;;;;;;;6.10;100.00;101210.53;5089389;28;20204;-84
2021/12/18 11:27:21;;;;;;;34.30;21.03;;;;;;;6.18;100.00;101206.94;5093297;28;20249;-85
2021/12/18 11:29:56;;;;;;;22.97;12.90;;;;;;;6.26;100.00;101209.44;5091955;28;20192;-85
2021/12/18 11:32:28;;;;;;;19.67;9.87;;;;;;;6.19;100.00;101203.41;5059781;28;20195;-85
2021/12/18 11:34:59;;;;;;;23.43;12.73;;;;;;;6.30;100.00;101187.47;5090319;28;20192;-84
2021/12/18 11:37:34;;;;;;;21.40;11.33;;;;;;;6.31;100.00;101186.56;5085978;28;20327;-84
2021/12/18 11:40:05;;;;;;;18.13;9.47;;;;;;;6.35;100.00;101190.03;5090554;28;20217;-84
2021/12/18 11:42:35;;;;;;;20.93;13.27;;;;;;;6.10;100.00;101181.59;5085513;28;20654;-85
2021/12/18 11:45:07;;;;;;;16.20;9.87;;;;;;;6.21;100.00;101183.19;5092052;28;20245;-85
2021/12/18 11:47:36;;;;;;;23.07;15.60;;;;;;;6.29;100.00;101173.44;5081198;28;20196;-85
2021/12/18 11:50:08;;;;;;;21.97;12.23;;;;;;;6.34;100.00;101172.50;5092155;28;20216;-85
2021/12/18 11:52:58;;;;;;;17.90;10.90;;;;;;;6.39;100.00;101166.28;5090341;28;20253;-84
2021/12/18 11:55:31;;;;;;;22.83;13.17;;;;;;;6.48;100.00;101175.81;5104202;28;20196;-85
2021/12/18 11:58:02;;;;;;;18.30;10.33;;;;;;;6.49;100.00;101167.03;5096657;28;20210;-84
2021/12/18 12:00:46;;;;;;;15.87;9.70;;;;;;;6.41;100.00;101172.38;5097038;28;20219;-85
2021/12/18 12:03:27;;;;;;;18.23;10.10;;;;;;;6.50;100.00;101161.72;5095603;28;20297;-84